createdAt,value
2018-09-10T00:00:55.254Z,2.47
2018-09-10T00:03:25.614Z,2.10
2018-09-10T00:05:54.891Z,2.10
2018-09-10T00:08:24.249Z,2.30
2018-09-10T00:10:54.128Z,2.20
2018-09-10T00:13:23.471Z,2.50
2018-09-10T00:15:52.799Z,2.10
2018-09-10T00:18:22.243Z,2.03
2018-09-10T00:20:51.969Z,2.30
2018-09-10T00:23:21.303Z,2.20
2018-09-10T00:25:51.162Z,2.50
2018-09-10T00:28:20.481Z,2.27
2018-09-10T00:30:49.836Z,2.20
2018-09-10T00:33:19.180Z,2.00
2018-09-10T00:35:49.159Z,2.60
2018-09-10T00:38:18.484Z,2.30
2018-09-10T00:40:47.791Z,2.20
2018-09-10T00:43:17.131Z,1.97
2018-09-10T00:45:46.948Z,2.00
2018-09-10T00:48:16.287Z,2.33
2018-09-10T00:50:45.944Z,2.30
2018-09-10T00:53:15.248Z,2.30
2018-09-10T00:55:45.195Z,2.00
2018-09-10T00:58:14.536Z,2.13
2018-09-10T01:00:44.275Z,2.60
2018-09-10T01:03:15.076Z,2.47
2018-09-10T01:05:44.452Z,2.13
2018-09-10T01:08:13.806Z,2.50
2018-09-10T01:11:13.888Z,2.33
2018-09-10T01:13:43.235Z,2.07
2018-09-10T01:16:13.035Z,2.60
2018-09-10T01:18:42.343Z,2.20
2018-09-10T01:21:11.866Z,2.67
2018-09-10T01:23:41.216Z,2.43
2018-09-10T01:26:11.120Z,2.17
2018-09-10T01:28:40.471Z,2.67
2018-09-10T01:31:09.763Z,2.40
2018-09-10T01:33:44.123Z,2.50
2018-09-10T01:36:13.500Z,2.30
2018-09-10T01:38:42.812Z,2.40
2018-09-10T01:41:12.689Z,2.63
2018-09-10T01:43:42.036Z,2.53
2018-09-10T01:46:11.868Z,2.40
2018-09-10T01:48:41.226Z,2.47
2018-09-10T01:51:11.013Z,2.60
2018-09-10T01:53:40.443Z,2.70
2018-09-10T01:56:09.789Z,2.70
2018-09-10T01:58:39.167Z,2.80
2018-09-10T02:01:08.975Z,2.50
2018-09-10T02:03:38.277Z,2.50
2018-09-10T02:06:07.918Z,2.37
2018-09-10T02:08:37.238Z,2.60
2018-09-10T02:11:07.044Z,2.67
2018-09-10T02:13:36.395Z,2.40
2018-09-10T02:16:09.027Z,2.27
2018-09-10T02:18:39.295Z,2.67
2018-09-10T02:21:08.620Z,2.33
2018-09-10T02:23:38.445Z,2.57
2018-09-10T02:26:07.940Z,2.67
2018-09-10T02:28:37.284Z,2.57
2018-09-10T02:31:06.752Z,2.10
2018-09-10T02:33:36.092Z,2.60
2018-09-10T02:36:05.793Z,2.33
2018-09-10T02:38:35.163Z,2.30
2018-09-10T02:41:04.511Z,2.50
2018-09-10T02:43:33.998Z,2.37
2018-09-10T02:46:03.817Z,2.60
2018-09-10T02:48:33.097Z,2.27
2018-09-10T02:51:02.416Z,2.57
2018-09-10T02:53:31.738Z,2.63
2018-09-10T02:56:01.528Z,2.53
2018-09-10T02:58:30.886Z,2.37
2018-09-10T03:01:00.251Z,2.17
2018-09-10T03:03:29.622Z,2.10
2018-09-10T03:05:59.447Z,2.77
2018-09-10T03:08:28.797Z,2.13
2018-09-10T03:10:58.135Z,2.47
2018-09-10T03:13:27.520Z,2.23
2018-09-10T03:15:57.107Z,2.03
2018-09-10T03:18:26.438Z,2.07
2018-09-10T03:20:58.838Z,2.63
2018-09-10T03:23:28.160Z,2.20
2018-09-10T03:25:57.519Z,2.57
2018-09-10T03:28:27.951Z,2.73
2018-09-10T03:30:58.522Z,2.40
2018-09-10T03:33:27.932Z,2.43
2018-09-10T03:35:57.307Z,2.70
2018-09-10T03:38:27.944Z,2.33
2018-09-10T03:40:57.248Z,2.87
2018-09-10T03:43:26.868Z,2.60
2018-09-10T03:45:56.189Z,2.50
2018-09-10T03:48:25.888Z,2.57
2018-09-10T03:50:55.192Z,2.53
2018-09-10T03:53:24.524Z,2.63
2018-09-10T03:55:53.856Z,2.90
2018-09-10T03:58:23.227Z,2.70
2018-09-10T04:00:52.529Z,2.20
2018-09-10T04:03:21.811Z,2.17
2018-09-10T04:05:51.406Z,2.47
2018-09-10T04:08:20.772Z,2.50
2018-09-10T04:10:50.093Z,2.80
2018-09-10T04:13:19.417Z,2.63
2018-09-10T04:15:49.440Z,2.17
2018-09-10T04:18:19.533Z,2.30
2018-09-10T04:20:49.218Z,2.23
2018-09-10T04:23:18.579Z,2.20
2018-09-10T04:25:48.027Z,2.40
2018-09-10T04:28:17.393Z,2.47
2018-09-10T04:30:47.096Z,2.33
2018-09-10T04:33:16.379Z,2.40
2018-09-10T04:35:46.416Z,2.20
2018-09-10T04:38:16.032Z,2.40
2018-09-10T04:40:46.828Z,2.50
2018-09-10T04:43:16.182Z,2.30
2018-09-10T04:45:46.092Z,2.30
2018-09-10T04:48:16.078Z,2.77
2018-09-10T04:50:45.368Z,2.33
2018-09-10T04:53:14.715Z,2.60
2018-09-10T04:55:44.112Z,2.43
2018-09-10T04:58:13.963Z,2.50
2018-09-10T05:00:43.336Z,2.53
2018-09-10T05:03:12.674Z,2.60
2018-09-10T05:05:42.654Z,2.40
2018-09-10T05:08:11.999Z,2.30
2018-09-10T05:10:41.369Z,2.63
2018-09-10T05:13:10.701Z,2.30
2018-09-10T05:15:40.495Z,2.77
2018-09-10T05:18:09.840Z,2.27
2018-09-10T05:20:39.361Z,2.60
2018-09-10T05:23:11.119Z,2.40
2018-09-10T05:25:41.792Z,2.30
2018-09-10T05:30:49.827Z,2.67
2018-09-10T05:33:19.201Z,2.80
2018-09-10T05:35:48.512Z,3.00
2018-09-10T05:38:18.290Z,3.20
2018-09-10T05:40:47.916Z,3.17
2018-09-10T05:43:18.987Z,3.03
2018-09-10T05:45:49.604Z,3.47
2018-09-10T05:48:19.346Z,3.10
2018-09-10T05:50:49.693Z,3.33
2018-09-10T05:53:19.807Z,2.93
2018-09-10T05:55:49.416Z,3.57
2018-09-10T05:58:18.840Z,2.97
2018-09-10T06:00:48.222Z,3.50
2018-09-10T06:03:19.681Z,3.23
2018-09-10T06:05:49.021Z,3.13
2018-09-10T06:11:55.812Z,2.90
2018-09-10T06:14:25.497Z,2.97
2018-09-10T06:16:55.262Z,3.33
2018-09-10T06:19:24.636Z,3.20
2018-09-10T06:21:54.253Z,3.30
2018-09-10T06:24:23.977Z,3.40
2018-09-10T06:26:53.347Z,3.10
2018-09-10T06:29:22.704Z,3.93
2018-09-10T06:31:52.710Z,2.97
2018-09-10T06:34:22.511Z,2.83
2018-09-10T06:36:51.877Z,3.23
2018-09-10T06:39:21.304Z,3.20
2018-09-10T06:41:51.673Z,3.40
2018-09-10T06:44:22.986Z,3.40
2018-09-10T06:46:52.315Z,3.43
2018-09-10T06:49:22.004Z,3.40
2018-09-10T06:51:51.355Z,3.20
2018-09-10T06:54:21.536Z,3.10
2018-09-10T06:56:50.847Z,2.80
2018-09-10T06:59:20.603Z,2.67
2018-09-10T07:01:49.937Z,3.10
2018-09-10T07:04:19.246Z,2.50
2018-09-10T07:06:48.640Z,2.50
2018-09-10T07:09:18.015Z,2.27
2018-09-10T07:11:47.376Z,2.40
2018-09-10T07:14:16.724Z,2.33
2018-09-10T07:16:46.666Z,2.27
2018-09-10T07:19:16.100Z,2.10
2018-09-10T07:21:45.451Z,2.17
2018-09-10T07:24:15.431Z,1.93
2018-09-10T07:26:44.915Z,2.20
2018-09-10T07:29:14.303Z,2.50
2018-09-10T07:31:44.057Z,2.43
2018-09-10T07:34:13.816Z,2.30
2018-09-10T07:36:43.603Z,2.30
2018-09-10T07:39:13.222Z,3.00
2018-09-10T07:41:43.539Z,2.30
2018-09-10T07:44:16.489Z,2.70
2018-09-10T07:46:46.995Z,2.57
2018-09-10T07:49:17.588Z,2.30
2018-09-10T07:51:46.970Z,2.70
2018-09-10T07:54:16.364Z,2.60
2018-09-10T07:59:22.455Z,3.20
2018-09-10T08:01:52.158Z,3.40
2018-09-10T08:04:21.480Z,2.50
2018-09-10T08:06:51.606Z,3.00
2018-09-10T08:09:21.779Z,2.50
2018-09-10T08:11:52.693Z,2.63
2018-09-10T08:14:22.210Z,2.47
2018-09-10T08:16:51.567Z,2.20
2018-09-10T08:19:21.860Z,2.80
2018-09-10T08:21:51.212Z,2.40
2018-09-10T08:24:21.276Z,2.00
2018-09-10T08:26:50.596Z,1.80
2018-09-10T08:29:20.895Z,2.47
2018-09-10T08:31:51.361Z,2.03
2018-09-10T08:34:21.239Z,2.57
2018-09-10T08:36:51.336Z,2.20
2018-09-10T08:39:20.692Z,2.03
2018-09-10T08:41:51.091Z,2.10
2018-09-10T08:44:22.006Z,2.07
2018-09-10T08:46:51.523Z,2.00
2018-09-10T08:49:21.272Z,2.33
2018-09-10T08:52:06.114Z,2.00
2018-09-10T08:54:36.390Z,2.37
2018-09-10T08:57:06.427Z,2.30
2018-09-10T08:59:35.745Z,2.17
2018-09-10T09:02:06.762Z,2.00
2018-09-10T09:04:36.370Z,2.23
2018-09-10T09:07:06.112Z,2.03
2018-09-10T09:09:35.405Z,2.10
2018-09-10T09:12:04.776Z,2.10
2018-09-10T09:14:34.529Z,2.07
2018-09-10T09:17:05.915Z,1.73
2018-09-10T09:19:35.822Z,1.70
2018-09-10T09:22:09.971Z,1.70
2018-09-10T09:24:40.230Z,2.00
2018-09-10T09:27:09.549Z,1.90
2018-09-10T09:29:40.333Z,1.97
2018-09-10T09:32:11.020Z,1.97
2018-09-10T09:34:45.413Z,1.90
2018-09-10T09:37:20.316Z,2.10
2018-09-10T09:39:56.262Z,1.93
2018-09-10T09:42:32.406Z,1.93
2018-09-10T09:45:07.126Z,2.20
2018-09-10T09:50:41.376Z,2.10
2018-09-10T09:53:10.675Z,1.97
2018-09-10T09:55:40.069Z,2.10
2018-09-10T09:58:09.401Z,2.43
2018-09-10T10:00:43.932Z,1.90
2018-09-10T10:03:17.536Z,1.80
2018-09-10T10:05:47.927Z,2.10
2018-09-10T10:08:19.018Z,1.80
2018-09-10T10:10:48.340Z,1.90
2018-09-10T10:13:17.670Z,1.93
2018-09-10T10:15:48.664Z,2.20
2018-09-10T10:18:18.399Z,2.00
2018-09-10T10:20:50.323Z,1.80
2018-09-10T10:23:20.283Z,2.23
2018-09-10T10:25:51.218Z,1.90
2018-09-10T10:28:23.036Z,1.83
2018-09-10T10:30:53.982Z,1.80
2018-09-10T10:33:23.764Z,1.80
2018-09-10T10:35:54.096Z,1.90
2018-09-10T10:38:23.935Z,1.80
2018-09-10T10:40:54.547Z,1.83
2018-09-10T10:43:23.830Z,1.90
2018-09-10T10:45:53.911Z,2.00
2018-09-10T10:48:23.314Z,1.97
2018-09-10T10:50:52.987Z,1.90
2018-09-10T10:53:22.388Z,1.93
2018-09-10T10:55:51.675Z,1.80
2018-09-10T10:58:21.336Z,1.77
2018-09-10T11:00:50.663Z,1.60
2018-09-10T11:03:20.687Z,1.80
2018-09-10T11:05:49.956Z,1.93
2018-09-10T11:08:19.308Z,1.93
2018-09-10T11:10:49.707Z,2.23
2018-09-10T11:13:19.483Z,2.10
2018-09-10T11:15:50.406Z,2.10
2018-09-10T11:18:19.797Z,1.93
2018-09-10T11:20:49.932Z,1.77
2018-09-10T11:23:21.043Z,2.00
2018-09-10T11:25:50.358Z,2.20
2018-09-10T11:28:20.044Z,1.83
2018-09-10T11:30:54.913Z,1.60
2018-09-10T11:33:30.362Z,1.90
2018-09-10T11:36:14.427Z,1.83
2018-09-10T11:38:44.276Z,1.43
2018-09-10T11:41:13.658Z,1.80
2018-09-10T11:43:46.118Z,1.50
2018-09-10T11:46:15.486Z,1.60
2018-09-10T11:48:49.172Z,1.40
2018-09-10T11:51:18.527Z,1.70
2018-09-10T11:53:48.157Z,1.47
2018-09-10T11:56:19.414Z,1.50
2018-09-10T11:58:52.916Z,1.40
2018-09-10T12:01:23.337Z,1.50
2018-09-10T12:03:54.879Z,1.70
2018-09-10T12:06:25.041Z,1.70
2018-09-10T12:08:56.268Z,1.70
2018-09-10T12:11:28.327Z,1.83
2018-09-10T12:13:58.266Z,1.60
2018-09-10T12:16:30.259Z,1.60
2018-09-10T12:18:59.714Z,1.63
2018-09-10T12:21:29.333Z,1.90
2018-09-10T12:23:59.671Z,1.57
2018-09-10T12:26:31.469Z,1.80
2018-09-10T12:29:02.983Z,1.90
2018-09-10T12:31:32.272Z,2.07
2018-09-10T12:34:02.295Z,1.70
2018-09-10T12:36:31.890Z,1.63
2018-09-10T12:39:02.402Z,1.60
2018-09-10T12:41:31.763Z,2.00
2018-09-10T12:44:02.254Z,2.00
2018-09-10T12:46:31.677Z,2.10
2018-09-10T12:49:01.439Z,2.47
2018-09-10T12:51:32.061Z,2.43
2018-09-10T12:54:02.403Z,2.00
2018-09-10T12:56:31.781Z,2.13
2018-09-10T12:59:02.615Z,2.10
2018-09-10T13:01:32.056Z,2.20
2018-09-10T13:04:01.416Z,2.10
2018-09-10T13:06:31.603Z,2.30
2018-09-10T13:09:01.024Z,2.00
2018-09-10T13:11:30.431Z,1.90
2018-09-10T13:14:01.551Z,2.03
2018-09-10T13:16:31.075Z,2.20
2018-09-10T13:19:00.456Z,2.10
2018-09-10T13:21:29.832Z,2.40
2018-09-10T13:24:02.348Z,1.87
2018-09-10T13:26:31.753Z,1.93
2018-09-10T13:29:01.135Z,2.30
2018-09-10T13:31:30.474Z,2.30
2018-09-10T13:34:01.066Z,2.10
2018-09-10T13:36:31.575Z,1.87
2018-09-10T13:39:10.947Z,1.80
2018-09-10T13:41:40.464Z,1.90
2018-09-10T13:44:09.748Z,2.10
2018-09-10T13:46:39.627Z,2.10
2018-09-10T13:49:14.296Z,2.30
2018-09-10T13:51:45.708Z,2.40
2018-09-10T13:54:15.463Z,2.60
2018-09-10T13:59:22.641Z,2.10
2018-09-10T14:02:21.557Z,2.23
2018-09-10T14:05:18.549Z,2.10
2018-09-10T14:07:53.246Z,2.40
2018-09-10T14:10:23.214Z,2.40
2018-09-10T14:12:54.219Z,2.20
2018-09-10T14:15:31.446Z,2.30
2018-09-10T14:18:01.605Z,2.40
2018-09-10T14:20:32.908Z,2.30
2018-09-10T14:23:02.646Z,2.47
2018-09-10T14:25:32.737Z,2.40
2018-09-10T14:28:03.305Z,2.10
2018-09-10T14:30:32.985Z,2.43
2018-09-10T14:33:03.310Z,2.33
2018-09-10T14:35:33.810Z,2.20
2018-09-10T14:38:06.130Z,2.60
2018-09-10T14:40:36.390Z,2.33
2018-09-10T14:43:05.821Z,2.57
2018-09-10T14:45:37.279Z,2.30
2018-09-10T14:48:07.467Z,2.40
2018-09-10T14:50:43.544Z,2.17
2018-09-10T14:53:20.082Z,2.30
2018-09-10T14:55:51.369Z,2.50
2018-09-10T14:58:20.737Z,2.43
2018-09-10T15:00:53.599Z,2.30
2018-09-10T15:03:24.775Z,2.73
2018-09-10T15:05:55.143Z,2.50
2018-09-10T15:08:25.330Z,2.67
2018-09-10T15:10:56.335Z,2.80
2018-09-10T15:13:26.019Z,2.60
2018-09-10T15:15:58.287Z,2.40
2018-09-10T15:18:29.394Z,2.40
2018-09-10T15:20:59.872Z,3.20
2018-09-10T15:23:29.270Z,2.50
2018-09-10T15:26:02.130Z,2.50
2018-09-10T15:28:32.435Z,2.53
2018-09-10T15:31:03.984Z,2.40
2018-09-10T15:33:33.958Z,2.70
2018-09-10T15:36:07.146Z,2.80
2018-09-10T15:38:37.469Z,2.60
2018-09-10T15:41:08.006Z,2.77
2018-09-10T15:43:37.350Z,2.77
2018-09-10T15:46:06.679Z,2.50
2018-09-10T15:48:36.262Z,2.50
2018-09-10T15:51:06.383Z,2.70
2018-09-10T15:53:36.503Z,2.33
2018-09-10T15:56:05.947Z,2.60
2018-09-10T15:58:36.538Z,2.50
2018-09-10T16:01:06.952Z,2.50
2018-09-10T16:03:36.498Z,2.87
2018-09-10T16:06:08.417Z,2.47
2018-09-10T16:08:38.057Z,2.60
2018-09-10T16:11:07.947Z,2.43
2018-09-10T16:13:38.703Z,2.43
2018-09-10T16:16:08.350Z,2.77
2018-09-10T16:18:39.475Z,2.60
2018-09-10T16:21:13.099Z,2.40
2018-09-10T16:23:44.891Z,2.40
2018-09-10T16:26:15.549Z,2.77
2018-09-10T16:28:47.090Z,2.60
2018-09-10T16:31:20.906Z,2.57
2018-09-10T16:33:52.527Z,2.67
2018-09-10T16:36:22.473Z,2.60
2018-09-10T16:39:13.950Z,2.57
2018-09-10T16:41:46.799Z,2.30
2018-09-10T16:44:17.487Z,2.40
2018-09-10T16:46:47.336Z,2.90
2018-09-10T16:49:17.300Z,2.60
2018-09-10T16:51:49.835Z,2.63
2018-09-10T16:54:27.462Z,2.43
2018-09-10T16:56:56.827Z,2.60
2018-09-10T16:59:27.031Z,2.43
2018-09-10T17:02:08.666Z,2.50
2018-09-10T17:04:39.320Z,2.57
2018-09-10T17:07:09.484Z,2.33
2018-09-10T17:09:39.983Z,2.20
2018-09-10T17:12:13.647Z,2.50
2018-09-10T17:14:50.012Z,2.73
2018-09-10T17:17:20.574Z,2.50
2018-09-10T17:19:53.093Z,2.40
2018-09-10T17:22:22.810Z,2.20
2018-09-10T17:24:55.627Z,2.80
2018-09-10T17:27:26.369Z,2.33
2018-09-10T17:29:56.235Z,2.47
2018-09-10T17:32:26.230Z,2.23
2018-09-10T17:34:55.862Z,2.30
2018-09-10T17:37:25.824Z,2.83
2018-09-10T17:39:56.100Z,2.70
2018-09-10T17:42:26.482Z,2.30
2018-09-10T17:44:56.225Z,2.60
2018-09-10T17:47:27.311Z,2.10
2018-09-10T17:49:57.756Z,2.53
2018-09-10T17:52:27.933Z,2.47
2018-09-10T17:54:59.285Z,2.50
2018-09-10T17:57:29.421Z,2.50
2018-09-10T17:59:59.150Z,2.30
2018-09-10T18:02:29.683Z,2.50
2018-09-10T18:05:02.282Z,2.50
2018-09-10T18:07:32.735Z,2.63
2018-09-10T18:12:47.507Z,2.40
2018-09-10T18:15:20.087Z,2.50
2018-09-10T18:17:52.049Z,2.30
2018-09-10T18:20:26.551Z,2.53
2018-09-10T18:22:58.830Z,2.40
2018-09-10T18:28:17.117Z,2.77
2018-09-10T18:30:49.727Z,2.60
2018-09-10T18:33:22.684Z,2.30
2018-09-10T18:35:56.967Z,2.67
2018-09-10T18:38:27.551Z,2.70
2018-09-10T18:40:57.027Z,2.53
2018-09-10T18:43:31.961Z,2.50
2018-09-10T18:46:05.347Z,2.37
2018-09-10T18:48:36.971Z,2.53
2018-09-10T18:51:06.806Z,2.47
2018-09-10T18:53:38.873Z,2.70
2018-09-10T18:56:10.370Z,2.70
2018-09-10T18:58:42.753Z,2.60
2018-09-10T19:01:16.892Z,2.67
2018-09-10T19:03:51.380Z,3.03
2018-09-10T19:06:23.805Z,2.40
2018-09-10T19:08:56.939Z,2.30
2018-09-10T19:11:31.898Z,2.40
2018-09-10T19:14:03.494Z,2.30
2018-09-10T19:16:34.481Z,2.30
2018-09-10T19:19:06.905Z,2.60
2018-09-10T19:21:41.856Z,2.63
2018-09-10T19:24:13.349Z,2.40
2018-09-10T19:26:49.905Z,2.27
2018-09-10T19:29:19.387Z,2.80
2018-09-10T19:31:49.660Z,2.30
2018-09-10T19:34:20.272Z,2.67
2018-09-10T19:36:50.219Z,2.30
2018-09-10T19:39:22.741Z,2.67
2018-09-10T19:41:53.708Z,2.20
2018-09-10T19:44:27.279Z,2.33
2018-09-10T19:46:59.030Z,2.60
2018-09-10T19:49:30.862Z,2.33
2018-09-10T19:52:01.452Z,2.37
2018-09-10T19:54:34.379Z,2.40
2018-09-10T19:57:07.775Z,2.60
2018-09-10T19:59:39.133Z,2.93
2018-09-10T20:02:14.404Z,2.57
2018-09-10T20:04:43.902Z,2.50
2018-09-10T20:07:19.686Z,2.53
2018-09-10T20:09:49.740Z,2.70
2018-09-10T20:12:19.092Z,2.70
2018-09-10T20:14:49.199Z,2.50
2018-09-10T20:17:21.488Z,2.63
2018-09-10T20:19:52.602Z,2.97
2018-09-10T20:24:57.304Z,2.63
2018-09-10T20:27:29.788Z,2.37
2018-09-10T20:30:00.271Z,2.57
2018-09-10T20:32:29.631Z,2.50
2018-09-10T20:35:01.394Z,2.50
2018-09-10T20:37:32.316Z,2.53
2018-09-10T20:40:02.477Z,2.60
2018-09-10T20:42:38.137Z,2.40
2018-09-10T20:45:09.355Z,2.80
2018-09-10T20:50:14.517Z,2.30
2018-09-10T20:52:43.832Z,2.70
2018-09-10T20:55:13.977Z,2.50
2018-09-10T20:57:43.651Z,2.47
2018-09-10T21:00:13.371Z,2.60
2018-09-10T21:02:45.358Z,2.57
2018-09-10T21:05:16.507Z,2.50
2018-09-10T21:07:49.396Z,2.80
2018-09-10T21:10:19.412Z,2.50
2018-09-10T21:12:49.614Z,2.80
2018-09-10T21:15:22.524Z,2.37
2018-09-10T21:17:52.180Z,2.50
2018-09-10T21:20:22.929Z,2.53
2018-09-10T21:22:55.401Z,2.60
2018-09-10T21:25:24.726Z,2.47
2018-09-10T21:27:55.386Z,2.67
2018-09-10T21:30:25.424Z,2.23
2018-09-10T21:32:55.487Z,2.20
2018-09-10T21:35:25.427Z,2.33
2018-09-10T21:37:58.010Z,2.40
2018-09-10T21:40:28.007Z,2.37
2018-09-10T21:42:57.982Z,2.73
2018-09-10T21:45:28.770Z,2.80
2018-09-10T21:47:59.227Z,2.50
2018-09-10T21:50:28.555Z,2.77
2018-09-10T21:52:59.780Z,2.40
2018-09-10T21:55:32.310Z,2.53
2018-09-10T21:58:02.651Z,2.40
2018-09-10T22:00:32.895Z,2.30
2018-09-10T22:03:02.750Z,2.60
2018-09-10T22:05:32.725Z,2.67
2018-09-10T22:08:02.084Z,2.60
2018-09-10T22:10:31.520Z,2.60
2018-09-10T22:13:01.247Z,3.07
2018-09-10T22:15:30.565Z,2.97
2018-09-10T22:18:02.519Z,3.47
2018-09-10T22:20:32.014Z,2.70
2018-09-10T22:23:03.930Z,3.13
2018-09-10T22:25:33.818Z,3.03
2018-09-10T22:28:03.635Z,3.00
2018-09-10T22:30:36.368Z,2.87
2018-09-10T22:33:07.358Z,3.37
2018-09-10T22:35:37.591Z,2.97
2018-09-10T22:38:06.978Z,2.97
2018-09-10T22:40:36.356Z,3.20
2018-09-10T22:43:06.250Z,2.77
2018-09-10T22:45:37.494Z,3.00
2018-09-10T22:48:07.484Z,3.30
2018-09-10T22:50:36.876Z,3.10
2018-09-10T22:53:06.961Z,3.20
2018-09-10T22:55:38.254Z,2.90
2018-09-10T22:58:10.331Z,2.90
2018-09-10T23:00:41.980Z,3.17
2018-09-10T23:03:14.433Z,3.10
2018-09-10T23:05:48.901Z,3.37
2018-09-10T23:08:24.466Z,3.20
2018-09-10T23:11:01.584Z,3.83
2018-09-10T23:13:39.059Z,3.00
2018-09-10T23:16:10.714Z,3.00
2018-09-10T23:18:45.330Z,3.50
2018-09-10T23:21:21.371Z,3.77
2018-09-10T23:23:53.436Z,4.13
2018-09-10T23:26:26.541Z,3.57
2018-09-10T23:28:57.691Z,3.73
2018-09-10T23:31:31.717Z,3.70
2018-09-10T23:34:03.460Z,4.20
2018-09-10T23:36:35.951Z,3.77
2018-09-10T23:39:12.775Z,3.70
2018-09-10T23:41:48.535Z,4.07
2018-09-10T23:44:18.035Z,3.77
2018-09-10T23:46:49.252Z,3.30
2018-09-10T23:49:20.280Z,3.77
2018-09-10T23:51:52.267Z,3.23
2018-09-10T23:54:22.927Z,3.57
2018-09-10T23:56:53.315Z,3.17
2018-09-10T23:59:25.310Z,3.87
